sensor_id;sensor_type;location;lat;lon;timestamp;temperature;humidity
51619;DHT22;38518;53.164;5.430;2023-05-24T00:00:31;10.20;1.00
51619;DHT22;38518;53.164;5.430;2023-05-24T00:02:57;10.10;1.00
51619;DHT22;38518;53.164;5.430;2023-05-24T00:05:23;10.40;1.00
51619;DHT22;38518;53.164;5.430;2023-05-24T00:07:49;10.20;1.00
51619;DHT22;38518;53.164;5.430;2023-05-24T00:10:15;10.20;1.00
51619;DHT22;38518;53.164;5.430;2023-05-24T00:12:41;10.10;1.00
51619;DHT22;38518;53.164;5.430;2023-05-24T00:15:07;10.10;1.00
51619;DHT22;38518;53.164;5.430;2023-05-24T00:17:33;10.10;1.00
51619;DHT22;38518;53.164;5.430;2023-05-24T00:20:09;10.20;1.00
51619;DHT22;38518;53.164;5.430;2023-05-24T00:22:40;10.10;1.00
51619;DHT22;38518;53.164;5.430;2023-05-24T00:25:06;9.90;1.00
51619;DHT22;38518;53.164;5.430;2023-05-24T00:27:32;10.10;1.00
51619;DHT22;38518;53.164;5.430;2023-05-24T00:29:58;10.70;1.00
51619;DHT22;38518;53.164;5.430;2023-05-24T00:32:24;10.10;1.00
51619;DHT22;38518;53.164;5.430;2023-05-24T00:34:50;10.00;1.00
51619;DHT22;38518;53.164;5.430;2023-05-24T00:37:16;10.00;1.00
51619;DHT22;38518;53.164;5.430;2023-05-24T00:39:42;10.00;1.00
51619;DHT22;38518;53.164;5.430;2023-05-24T00:42:08;10.10;1.00
51619;DHT22;38518;53.164;5.430;2023-05-24T00:44:34;9.70;1.00
51619;DHT22;38518;53.164;5.430;2023-05-24T00:46:59;10.10;1.00
51619;DHT22;38518;53.164;5.430;2023-05-24T00:49:26;10.00;1.00
51619;DHT22;38518;53.164;5.430;2023-05-24T00:51:52;10.00;1.00
51619;DHT22;38518;53.164;5.430;2023-05-24T00:54:19;10.00;1.00
51619;DHT22;38518;53.164;5.430;2023-05-24T00:56:45;10.00;1.00
51619;DHT22;38518;53.164;5.430;2023-05-24T00:59:12;10.00;1.00
51619;DHT22;38518;53.164;5.430;2023-05-24T01:01:38;10.00;1.00
51619;DHT22;38518;53.164;5.430;2023-05-24T01:04:06;10.10;1.00
51619;DHT22;38518;53.164;5.430;2023-05-24T01:06:37;10.20;1.00
51619;DHT22;38518;53.164;5.430;2023-05-24T01:09:17;10.60;1.00
51619;DHT22;38518;53.164;5.430;2023-05-24T01:12:19;10.10;1.00
51619;DHT22;38518;53.164;5.430;2023-05-24T01:15:06;10.20;1.00
51619;DHT22;38518;53.164;5.430;2023-05-24T01:17:55;10.10;1.00
51619;DHT22;38518;53.164;5.430;2023-05-24T01:20:27;10.10;1.00
51619;DHT22;38518;53.164;5.430;2023-05-24T01:28:38;10.00;1.00
51619;DHT22;38518;53.164;5.430;2023-05-24T01:31:04;10.10;1.00
51619;DHT22;38518;53.164;5.430;2023-05-24T01:33:31;10.10;1.00
51619;DHT22;38518;53.164;5.430;2023-05-24T01:36:00;8.80;1.00
51619;DHT22;38518;53.164;5.430;2023-05-24T01:38:25;10.00;1.00
51619;DHT22;38518;53.164;5.430;2023-05-24T01:40:57;10.10;1.00
51619;DHT22;38518;53.164;5.430;2023-05-24T01:43:38;10.10;1.00
51619;DHT22;38518;53.164;5.430;2023-05-24T01:49:12;10.30;1.00
51619;DHT22;38518;53.164;5.430;2023-05-24T01:51:53;10.20;1.00
51619;DHT22;38518;53.164;5.430;2023-05-24T01:54:25;10.10;1.00
51619;DHT22;38518;53.164;5.430;2023-05-24T01:56:55;10.10;1.00
51619;DHT22;38518;53.164;5.430;2023-05-24T01:59:23;10.20;1.00
51619;DHT22;38518;53.164;5.430;2023-05-24T02:01:50;10.10;1.00
51619;DHT22;38518;53.164;5.430;2023-05-24T02:04:16;10.20;1.00
51619;DHT22;38518;53.164;5.430;2023-05-24T02:06:42;10.10;1.00
51619;DHT22;38518;53.164;5.430;2023-05-24T02:09:08;11.10;1.00
51619;DHT22;38518;53.164;5.430;2023-05-24T02:11:34;10.30;1.00
51619;DHT22;38518;53.164;5.430;2023-05-24T02:14:03;10.10;1.00
51619;DHT22;38518;53.164;5.430;2023-05-24T02:16:28;10.20;1.00
51619;DHT22;38518;53.164;5.430;2023-05-24T02:18:56;10.10;1.00
51619;DHT22;38518;53.164;5.430;2023-05-24T02:21:21;10.10;1.00
51619;DHT22;38518;53.164;5.430;2023-05-24T02:23:48;10.20;1.00
51619;DHT22;38518;53.164;5.430;2023-05-24T02:26:14;10.40;1.00
51619;DHT22;38518;53.164;5.430;2023-05-24T02:28:42;10.50;1.00
51619;DHT22;38518;53.164;5.430;2023-05-24T02:31:08;10.50;1.00
51619;DHT22;38518;53.164;5.430;2023-05-24T02:33:37;10.20;1.00
51619;DHT22;38518;53.164;5.430;2023-05-24T02:36:03;10.20;1.00
51619;DHT22;38518;53.164;5.430;2023-05-24T02:38:28;10.10;1.00
51619;DHT22;38518;53.164;5.430;2023-05-24T02:40:54;10.10;1.00
51619;DHT22;38518;53.164;5.430;2023-05-24T02:43:20;10.20;1.00
51619;DHT22;38518;53.164;5.430;2023-05-24T02:45:46;10.10;1.00
51619;DHT22;38518;53.164;5.430;2023-05-24T02:48:17;10.10;1.00
51619;DHT22;38518;53.164;5.430;2023-05-24T02:50:43;10.20;1.00
51619;DHT22;38518;53.164;5.430;2023-05-24T02:53:08;10.10;1.00
51619;DHT22;38518;53.164;5.430;2023-05-24T02:55:34;10.10;1.00
51619;DHT22;38518;53.164;5.430;2023-05-24T02:58:00;11.50;1.00
51619;DHT22;38518;53.164;5.430;2023-05-24T03:00:26;10.10;1.00
51619;DHT22;38518;53.164;5.430;2023-05-24T03:02:51;10.00;1.00
51619;DHT22;38518;53.164;5.430;2023-05-24T03:05:17;10.10;1.00
51619;DHT22;38518;53.164;5.430;2023-05-24T03:07:43;10.10;1.00
51619;DHT22;38518;53.164;5.430;2023-05-24T03:10:09;10.10;1.00
51619;DHT22;38518;53.164;5.430;2023-05-24T03:12:35;9.90;1.00
51619;DHT22;38518;53.164;5.430;2023-05-24T03:15:01;10.00;1.00
51619;DHT22;38518;53.164;5.430;2023-05-24T03:17:27;9.90;1.00
51619;DHT22;38518;53.164;5.430;2023-05-24T03:19:52;9.90;1.00
51619;DHT22;38518;53.164;5.430;2023-05-24T03:22:18;9.90;1.00
51619;DHT22;38518;53.164;5.430;2023-05-24T03:24:44;9.90;1.00
51619;DHT22;38518;53.164;5.430;2023-05-24T03:27:11;10.00;1.00
51619;DHT22;38518;53.164;5.430;2023-05-24T03:29:37;10.00;1.00
51619;DHT22;38518;53.164;5.430;2023-05-24T03:32:03;10.20;1.00
51619;DHT22;38518;53.164;5.430;2023-05-24T03:34:29;10.00;1.00
51619;DHT22;38518;53.164;5.430;2023-05-24T03:36:56;10.10;1.00
51619;DHT22;38518;53.164;5.430;2023-05-24T03:39:21;10.70;1.00
51619;DHT22;38518;53.164;5.430;2023-05-24T03:41:47;9.90;1.00
51619;DHT22;38518;53.164;5.430;2023-05-24T03:44:13;10.00;1.00
51619;DHT22;38518;53.164;5.430;2023-05-24T03:46:39;9.90;1.00
51619;DHT22;38518;53.164;5.430;2023-05-24T03:49:06;9.90;1.00
51619;DHT22;38518;53.164;5.430;2023-05-24T03:51:32;9.90;1.00
51619;DHT22;38518;53.164;5.430;2023-05-24T03:53:58;9.90;1.00
51619;DHT22;38518;53.164;5.430;2023-05-24T03:56:25;9.90;1.00
51619;DHT22;38518;53.164;5.430;2023-05-24T03:58:53;10.00;1.00
51619;DHT22;38518;53.164;5.430;2023-05-24T04:01:19;9.90;4.00
51619;DHT22;38518;53.164;5.430;2023-05-24T04:03:46;9.90;3.10
51619;DHT22;38518;53.164;5.430;2023-05-24T04:06:12;8.90;3.70
51619;DHT22;38518;53.164;5.430;2023-05-24T04:08:38;10.00;6.20
51619;DHT22;38518;53.164;5.430;2023-05-24T04:11:04;10.10;6.90
51619;DHT22;38518;53.164;5.430;2023-05-24T04:13:30;10.10;1.80
51619;DHT22;38518;53.164;5.430;2023-05-24T04:15:56;10.10;4.10
51619;DHT22;38518;53.164;5.430;2023-05-24T04:18:21;10.00;6.10
51619;DHT22;38518;53.164;5.430;2023-05-24T04:20:47;10.00;12.90
51619;DHT22;38518;53.164;5.430;2023-05-24T04:23:13;10.00;8.20
51619;DHT22;38518;53.164;5.430;2023-05-24T04:25:39;10.10;5.70
51619;DHT22;38518;53.164;5.430;2023-05-24T04:28:05;10.00;6.40
51619;DHT22;38518;53.164;5.430;2023-05-24T04:30:31;10.10;5.50
51619;DHT22;38518;53.164;5.430;2023-05-24T04:32:57;10.10;6.90
51619;DHT22;38518;53.164;5.430;2023-05-24T04:35:25;10.20;6.10
51619;DHT22;38518;53.164;5.430;2023-05-24T04:37:51;10.40;6.70
51619;DHT22;38518;53.164;5.430;2023-05-24T04:40:17;10.10;7.00
51619;DHT22;38518;53.164;5.430;2023-05-24T04:42:45;10.10;5.40
51619;DHT22;38518;53.164;5.430;2023-05-24T04:45:11;10.20;8.30
51619;DHT22;38518;53.164;5.430;2023-05-24T04:47:37;10.10;10.30
51619;DHT22;38518;53.164;5.430;2023-05-24T04:50:03;10.40;11.90
51619;DHT22;38518;53.164;5.430;2023-05-24T04:52:29;10.40;10.50
51619;DHT22;38518;53.164;5.430;2023-05-24T04:54:55;10.20;14.80
51619;DHT22;38518;53.164;5.430;2023-05-24T04:57:22;10.30;18.00
51619;DHT22;38518;53.164;5.430;2023-05-24T04:59:48;10.20;18.60
51619;DHT22;38518;53.164;5.430;2023-05-24T05:02:14;10.30;16.50
51619;DHT22;38518;53.164;5.430;2023-05-24T05:04:40;10.50;16.80
51619;DHT22;38518;53.164;5.430;2023-05-24T05:07:06;9.50;16.00
51619;DHT22;38518;53.164;5.430;2023-05-24T05:09:32;10.40;21.80
51619;DHT22;38518;53.164;5.430;2023-05-24T05:11:57;10.70;18.10
51619;DHT22;38518;53.164;5.430;2023-05-24T05:14:24;10.60;13.50
51619;DHT22;38518;53.164;5.430;2023-05-24T05:16:50;10.60;12.30
51619;DHT22;38518;53.164;5.430;2023-05-24T05:19:15;10.60;12.00
51619;DHT22;38518;53.164;5.430;2023-05-24T05:21:41;10.70;9.60
51619;DHT22;38518;53.164;5.430;2023-05-24T05:24:07;10.80;8.60
51619;DHT22;38518;53.164;5.430;2023-05-24T05:26:33;10.90;7.80
51619;DHT22;38518;53.164;5.430;2023-05-24T05:29:00;11.10;1.00
51619;DHT22;38518;53.164;5.430;2023-05-24T05:31:25;11.00;1.00
51619;DHT22;38518;53.164;5.430;2023-05-24T05:33:51;11.00;1.00
51619;DHT22;38518;53.164;5.430;2023-05-24T05:36:18;11.20;1.00
51619;DHT22;38518;53.164;5.430;2023-05-24T05:38:43;11.20;1.00
51619;DHT22;38518;53.164;5.430;2023-05-24T05:41:09;11.30;1.00
51619;DHT22;38518;53.164;5.430;2023-05-24T05:43:35;11.50;1.00
51619;DHT22;38518;53.164;5.430;2023-05-24T05:46:01;11.60;1.00
51619;DHT22;38518;53.164;5.430;2023-05-24T05:48:27;11.80;1.00
51619;DHT22;38518;53.164;5.430;2023-05-24T05:50:53;12.10;1.00
51619;DHT22;38518;53.164;5.430;2023-05-24T05:53:18;11.90;1.00
51619;DHT22;38518;53.164;5.430;2023-05-24T05:55:44;12.10;1.00
51619;DHT22;38518;53.164;5.430;2023-05-24T05:58:10;12.50;1.00
51619;DHT22;38518;53.164;5.430;2023-05-24T06:00:37;13.30;1.00
51619;DHT22;38518;53.164;5.430;2023-05-24T06:03:03;14.70;1.00
51619;DHT22;38518;53.164;5.430;2023-05-24T06:05:29;13.30;1.00
51619;DHT22;38518;53.164;5.430;2023-05-24T06:07:55;14.10;1.00
51619;DHT22;38518;53.164;5.430;2023-05-24T06:10:20;13.80;1.00
51619;DHT22;38518;53.164;5.430;2023-05-24T06:12:46;15.00;1.00
51619;DHT22;38518;53.164;5.430;2023-05-24T06:15:12;15.00;1.00
51619;DHT22;38518;53.164;5.430;2023-05-24T06:17:38;14.20;1.00
51619;DHT22;38518;53.164;5.430;2023-05-24T06:20:06;13.90;1.00
51619;DHT22;38518;53.164;5.430;2023-05-24T06:22:38;14.70;1.00
51619;DHT22;38518;53.164;5.430;2023-05-24T06:25:04;14.40;1.00
51619;DHT22;38518;53.164;5.430;2023-05-24T06:27:30;14.50;1.00
51619;DHT22;38518;53.164;5.430;2023-05-24T06:29:56;14.60;1.00
51619;DHT22;38518;53.164;5.430;2023-05-24T06:32:22;15.30;1.00
51619;DHT22;38518;53.164;5.430;2023-05-24T06:34:47;14.60;1.00
51619;DHT22;38518;53.164;5.430;2023-05-24T06:37:13;14.20;1.00
51619;DHT22;38518;53.164;5.430;2023-05-24T06:39:42;15.10;1.00
51619;DHT22;38518;53.164;5.430;2023-05-24T06:42:08;15.00;1.00
51619;DHT22;38518;53.164;5.430;2023-05-24T06:44:33;15.30;1.00
51619;DHT22;38518;53.164;5.430;2023-05-24T06:47:00;15.10;1.00
51619;DHT22;38518;53.164;5.430;2023-05-24T06:51:53;15.30;1.00
51619;DHT22;38518;53.164;5.430;2023-05-24T06:54:19;15.50;1.00
51619;DHT22;38518;53.164;5.430;2023-05-24T06:56:44;15.50;1.00
51619;DHT22;38518;53.164;5.430;2023-05-24T06:59:10;15.60;1.00
51619;DHT22;38518;53.164;5.430;2023-05-24T07:01:36;15.80;1.00
51619;DHT22;38518;53.164;5.430;2023-05-24T07:04:09;15.90;1.00
51619;DHT22;38518;53.164;5.430;2023-05-24T07:06:35;16.10;1.00
51619;DHT22;38518;53.164;5.430;2023-05-24T07:09:02;16.30;1.00
51619;DHT22;38518;53.164;5.430;2023-05-24T07:11:29;16.40;1.00
51619;DHT22;38518;53.164;5.430;2023-05-24T07:13:56;16.50;1.00
51619;DHT22;38518;53.164;5.430;2023-05-24T07:16:22;16.70;1.00
51619;DHT22;38518;53.164;5.430;2023-05-24T07:18:47;16.70;1.00
51619;DHT22;38518;53.164;5.430;2023-05-24T07:21:13;16.70;1.00
51619;DHT22;38518;53.164;5.430;2023-05-24T07:23:39;16.80;1.00
51619;DHT22;38518;53.164;5.430;2023-05-24T07:26:05;17.00;1.00
51619;DHT22;38518;53.164;5.430;2023-05-24T07:28:31;17.20;1.00
51619;DHT22;38518;53.164;5.430;2023-05-24T07:30:57;17.20;1.00
51619;DHT22;38518;53.164;5.430;2023-05-24T07:33:23;17.30;1.00
51619;DHT22;38518;53.164;5.430;2023-05-24T07:35:48;17.30;1.00
51619;DHT22;38518;53.164;5.430;2023-05-24T07:38:17;17.50;1.00
51619;DHT22;38518;53.164;5.430;2023-05-24T07:40:43;17.70;1.00
51619;DHT22;38518;53.164;5.430;2023-05-24T07:43:08;17.60;1.00
51619;DHT22;38518;53.164;5.430;2023-05-24T07:45:34;17.80;1.00
51619;DHT22;38518;53.164;5.430;2023-05-24T07:48:00;18.00;1.00
51619;DHT22;38518;53.164;5.430;2023-05-24T07:50:26;18.20;1.00
51619;DHT22;38518;53.164;5.430;2023-05-24T07:52:55;18.50;1.00
51619;DHT22;38518;53.164;5.430;2023-05-24T07:55:21;18.20;1.00
51619;DHT22;38518;53.164;5.430;2023-05-24T07:57:46;18.20;1.00
51619;DHT22;38518;53.164;5.430;2023-05-24T08:00:12;18.10;1.00
51619;DHT22;38518;53.164;5.430;2023-05-24T08:02:42;18.20;1.00
51619;DHT22;38518;53.164;5.430;2023-05-24T08:05:14;18.20;1.00
51619;DHT22;38518;53.164;5.430;2023-05-24T08:07:40;18.60;1.00
51619;DHT22;38518;53.164;5.430;2023-05-24T08:10:08;18.80;1.00
51619;DHT22;38518;53.164;5.430;2023-05-24T08:12:34;18.80;1.00
51619;DHT22;38518;53.164;5.430;2023-05-24T08:15:00;19.20;1.00
51619;DHT22;38518;53.164;5.430;2023-05-24T08:17:26;19.40;1.00
51619;DHT22;38518;53.164;5.430;2023-05-24T08:19:52;19.10;1.00
51619;DHT22;38518;53.164;5.430;2023-05-24T08:22:18;18.90;1.00
51619;DHT22;38518;53.164;5.430;2023-05-24T08:24:44;19.10;1.00
51619;DHT22;38518;53.164;5.430;2023-05-24T08:27:10;19.20;1.00
51619;DHT22;38518;53.164;5.430;2023-05-24T08:29:36;19.00;1.00
51619;DHT22;38518;53.164;5.430;2023-05-24T08:32:02;18.80;1.00
51619;DHT22;38518;53.164;5.430;2023-05-24T08:34:28;18.70;1.00
51619;DHT22;38518;53.164;5.430;2023-05-24T08:36:54;18.90;1.00
51619;DHT22;38518;53.164;5.430;2023-05-24T08:39:20;18.70;1.00
51619;DHT22;38518;53.164;5.430;2023-05-24T08:41:46;18.80;1.00
51619;DHT22;38518;53.164;5.430;2023-05-24T08:44:12;19.00;1.00
51619;DHT22;38518;53.164;5.430;2023-05-24T08:46:38;19.00;1.00
51619;DHT22;38518;53.164;5.430;2023-05-24T08:49:04;19.00;1.00
51619;DHT22;38518;53.164;5.430;2023-05-24T08:51:30;19.10;1.00
51619;DHT22;38518;53.164;5.430;2023-05-24T08:53:59;19.30;1.00
51619;DHT22;38518;53.164;5.430;2023-05-24T08:56:26;19.70;1.00
51619;DHT22;38518;53.164;5.430;2023-05-24T08:58:54;19.80;1.00
51619;DHT22;38518;53.164;5.430;2023-05-24T09:01:20;19.80;1.00
51619;DHT22;38518;53.164;5.430;2023-05-24T09:03:49;20.40;1.00
51619;DHT22;38518;53.164;5.430;2023-05-24T09:06:16;20.50;1.00
51619;DHT22;38518;53.164;5.430;2023-05-24T09:08:43;20.60;1.00
51619;DHT22;38518;53.164;5.430;2023-05-24T09:11:10;20.80;1.00
51619;DHT22;38518;53.164;5.430;2023-05-24T09:13:43;21.00;1.00
51619;DHT22;38518;53.164;5.430;2023-05-24T09:16:11;21.10;1.00
51619;DHT22;38518;53.164;5.430;2023-05-24T09:18:38;21.40;1.00
51619;DHT22;38518;53.164;5.430;2023-05-24T09:21:08;21.30;1.00
51619;DHT22;38518;53.164;5.430;2023-05-24T09:23:37;21.60;1.00
51619;DHT22;38518;53.164;5.430;2023-05-24T09:26:11;21.40;1.00
51619;DHT22;38518;53.164;5.430;2023-05-24T09:28:37;21.30;1.00
51619;DHT22;38518;53.164;5.430;2023-05-24T09:31:03;21.00;1.00
51619;DHT22;38518;53.164;5.430;2023-05-24T09:33:30;21.10;1.00
51619;DHT22;38518;53.164;5.430;2023-05-24T09:36:04;20.70;1.00
51619;DHT22;38518;53.164;5.430;2023-05-24T09:39:02;21.30;1.00
51619;DHT22;38518;53.164;5.430;2023-05-24T09:41:19;21.30;1.00
51619;DHT22;38518;53.164;5.430;2023-05-24T09:43:49;21.30;1.00
51619;DHT22;38518;53.164;5.430;2023-05-24T09:46:20;21.30;1.00
51619;DHT22;38518;53.164;5.430;2023-05-24T09:51:22;20.90;1.00
51619;DHT22;38518;53.164;5.430;2023-05-24T09:54:04;21.00;1.00
51619;DHT22;38518;53.164;5.430;2023-05-24T09:56:32;21.80;1.00
51619;DHT22;38518;53.164;5.430;2023-05-24T09:58:58;22.50;1.00
51619;DHT22;38518;53.164;5.430;2023-05-24T10:01:29;22.40;1.00
51619;DHT22;38518;53.164;5.430;2023-05-24T10:03:58;22.60;1.00
51619;DHT22;38518;53.164;5.430;2023-05-24T10:06:29;22.40;1.00
51619;DHT22;38518;53.164;5.430;2023-05-24T10:08:58;23.10;1.00
51619;DHT22;38518;53.164;5.430;2023-05-24T10:11:31;22.60;1.00
51619;DHT22;38518;53.164;5.430;2023-05-24T10:13:58;24.30;1.00
51619;DHT22;38518;53.164;5.430;2023-05-24T10:16:31;22.40;1.00
51619;DHT22;38518;53.164;5.430;2023-05-24T10:18:58;24.30;1.00
51619;DHT22;38518;53.164;5.430;2023-05-24T10:21:24;22.40;1.00
51619;DHT22;38518;53.164;5.430;2023-05-24T10:23:56;22.80;1.00
51619;DHT22;38518;53.164;5.430;2023-05-24T10:26:24;22.80;1.00
51619;DHT22;38518;53.164;5.430;2023-05-24T10:28:56;22.30;1.00
51619;DHT22;38518;53.164;5.430;2023-05-24T10:31:30;22.10;1.00
51619;DHT22;38518;53.164;5.430;2023-05-24T10:33:58;21.90;1.00
51619;DHT22;38518;53.164;5.430;2023-05-24T10:36:25;22.00;1.00
51619;DHT22;38518;53.164;5.430;2023-05-24T10:38:51;21.80;1.00
51619;DHT22;38518;53.164;5.430;2023-05-24T10:41:17;21.60;1.00
51619;DHT22;38518;53.164;5.430;2023-05-24T10:43:47;21.20;1.00
51619;DHT22;38518;53.164;5.430;2023-05-24T10:46:16;20.70;1.00
51619;DHT22;38518;53.164;5.430;2023-05-24T10:48:42;20.20;1.00
51619;DHT22;38518;53.164;5.430;2023-05-24T10:51:33;20.20;1.00
51619;DHT22;38518;53.164;5.430;2023-05-24T10:54:17;19.80;1.00
51619;DHT22;38518;53.164;5.430;2023-05-24T10:56:48;19.70;1.00
51619;DHT22;38518;53.164;5.430;2023-05-24T10:59:36;19.80;1.00
51619;DHT22;38518;53.164;5.430;2023-05-24T11:02:08;20.40;1.00
51619;DHT22;38518;53.164;5.430;2023-05-24T11:04:46;20.80;1.00
51619;DHT22;38518;53.164;5.430;2023-05-24T11:07:14;21.20;1.00
51619;DHT22;38518;53.164;5.430;2023-05-24T11:09:41;21.20;1.00
51619;DHT22;38518;53.164;5.430;2023-05-24T11:12:14;21.10;1.00
51619;DHT22;38518;53.164;5.430;2023-05-24T11:14:46;21.10;1.00
51619;DHT22;38518;53.164;5.430;2023-05-24T11:17:13;20.90;1.00
51619;DHT22;38518;53.164;5.430;2023-05-24T11:19:48;20.90;1.00
51619;DHT22;38518;53.164;5.430;2023-05-24T11:22:15;21.10;1.00
51619;DHT22;38518;53.164;5.430;2023-05-24T11:24:41;21.20;1.00
51619;DHT22;38518;53.164;5.430;2023-05-24T11:27:10;21.30;1.00
51619;DHT22;38518;53.164;5.430;2023-05-24T11:29:40;21.20;1.00
51619;DHT22;38518;53.164;5.430;2023-05-24T11:32:07;21.20;1.00
51619;DHT22;38518;53.164;5.430;2023-05-24T11:34:34;21.20;1.00
51619;DHT22;38518;53.164;5.430;2023-05-24T11:37:02;21.10;1.00
51619;DHT22;38518;53.164;5.430;2023-05-24T11:39:35;21.10;1.00
51619;DHT22;38518;53.164;5.430;2023-05-24T11:42:05;21.20;1.00
51619;DHT22;38518;53.164;5.430;2023-05-24T11:44:31;21.20;1.00
51619;DHT22;38518;53.164;5.430;2023-05-24T11:47:01;21.30;1.00
51619;DHT22;38518;53.164;5.430;2023-05-24T11:49:27;21.30;1.00
51619;DHT22;38518;53.164;5.430;2023-05-24T11:51:56;21.20;1.00
51619;DHT22;38518;53.164;5.430;2023-05-24T11:54:23;21.40;1.00
51619;DHT22;38518;53.164;5.430;2023-05-24T11:56:49;21.20;1.00
51619;DHT22;38518;53.164;5.430;2023-05-24T11:59:23;21.20;1.00
51619;DHT22;38518;53.164;5.430;2023-05-24T12:02:00;21.40;1.00
51619;DHT22;38518;53.164;5.430;2023-05-24T12:04:27;21.50;1.00
51619;DHT22;38518;53.164;5.430;2023-05-24T12:06:53;21.40;1.00
51619;DHT22;38518;53.164;5.430;2023-05-24T12:09:20;21.40;1.00
51619;DHT22;38518;53.164;5.430;2023-05-24T12:11:47;21.60;1.00
51619;DHT22;38518;53.164;5.430;2023-05-24T12:14:16;21.70;1.00
51619;DHT22;38518;53.164;5.430;2023-05-24T12:16:43;22.10;1.00
51619;DHT22;38518;53.164;5.430;2023-05-24T12:19:18;22.20;1.00
51619;DHT22;38518;53.164;5.430;2023-05-24T12:21:46;22.60;1.00
51619;DHT22;38518;53.164;5.430;2023-05-24T12:24:16;22.70;1.00
51619;DHT22;38518;53.164;5.430;2023-05-24T12:26:46;22.70;1.00
51619;DHT22;38518;53.164;5.430;2023-05-24T12:29:16;22.90;1.00
51619;DHT22;38518;53.164;5.430;2023-05-24T12:31:47;23.20;1.00
51619;DHT22;38518;53.164;5.430;2023-05-24T12:34:19;23.40;1.00
51619;DHT22;38518;53.164;5.430;2023-05-24T12:36:48;23.30;1.00
51619;DHT22;38518;53.164;5.430;2023-05-24T12:39:25;23.00;1.00
51619;DHT22;38518;53.164;5.430;2023-05-24T12:42:00;22.80;1.00
51619;DHT22;38518;53.164;5.430;2023-05-24T12:44:32;23.50;1.00
51619;DHT22;38518;53.164;5.430;2023-05-24T12:50:29;23.00;1.00
51619;DHT22;38518;53.164;5.430;2023-05-24T12:53:27;23.70;1.00
51619;DHT22;38518;53.164;5.430;2023-05-24T12:59:11;23.90;1.00
51619;DHT22;38518;53.164;5.430;2023-05-24T13:01:45;23.90;1.00
51619;DHT22;38518;53.164;5.430;2023-05-24T13:04:33;23.70;1.00
51619;DHT22;38518;53.164;5.430;2023-05-24T13:09:58;23.70;1.00
51619;DHT22;38518;53.164;5.430;2023-05-24T13:12:25;24.10;1.00
51619;DHT22;38518;53.164;5.430;2023-05-24T13:14:56;23.70;1.00
51619;DHT22;38518;53.164;5.430;2023-05-24T13:17:37;23.80;1.00
51619;DHT22;38518;53.164;5.430;2023-05-24T13:20:21;23.80;1.00
51619;DHT22;38518;53.164;5.430;2023-05-24T13:22:51;23.60;1.00
51619;DHT22;38518;53.164;5.430;2023-05-24T13:25:17;23.50;1.00
51619;DHT22;38518;53.164;5.430;2023-05-24T13:27:42;23.50;1.00
51619;DHT22;38518;53.164;5.430;2023-05-24T13:30:28;23.70;1.00
51619;DHT22;38518;53.164;5.430;2023-05-24T13:32:57;23.90;1.00
51619;DHT22;38518;53.164;5.430;2023-05-24T13:35:24;24.10;1.00
51619;DHT22;38518;53.164;5.430;2023-05-24T13:37:50;24.20;1.00
51619;DHT22;38518;53.164;5.430;2023-05-24T13:40:18;24.20;1.00
51619;DHT22;38518;53.164;5.430;2023-05-24T13:42:44;23.90;1.00
51619;DHT22;38518;53.164;5.430;2023-05-24T13:45:11;23.80;1.00
51619;DHT22;38518;53.164;5.430;2023-05-24T13:47:37;23.60;1.00
51619;DHT22;38518;53.164;5.430;2023-05-24T13:50:03;24.00;1.00
51619;DHT22;38518;53.164;5.430;2023-05-24T13:52:29;24.00;1.00
51619;DHT22;38518;53.164;5.430;2023-05-24T13:54:55;23.90;1.00
51619;DHT22;38518;53.164;5.430;2023-05-24T13:57:22;23.90;1.00
51619;DHT22;38518;53.164;5.430;2023-05-24T13:59:48;24.10;1.00
51619;DHT22;38518;53.164;5.430;2023-05-24T14:02:14;24.30;1.00
51619;DHT22;38518;53.164;5.430;2023-05-24T14:04:40;24.40;1.00
51619;DHT22;38518;53.164;5.430;2023-05-24T14:07:08;24.30;1.00
51619;DHT22;38518;53.164;5.430;2023-05-24T14:09:34;24.30;1.00
51619;DHT22;38518;53.164;5.430;2023-05-24T14:12:00;24.00;1.00
51619;DHT22;38518;53.164;5.430;2023-05-24T14:14:27;23.80;1.00
51619;DHT22;38518;53.164;5.430;2023-05-24T14:16:53;24.10;1.00
51619;DHT22;38518;53.164;5.430;2023-05-24T14:19:20;23.80;1.00
51619;DHT22;38518;53.164;5.430;2023-05-24T14:21:46;23.70;1.00
51619;DHT22;38518;53.164;5.430;2023-05-24T14:24:12;23.70;1.00
51619;DHT22;38518;53.164;5.430;2023-05-24T14:26:37;23.80;1.00
51619;DHT22;38518;53.164;5.430;2023-05-24T14:29:05;24.20;1.00
51619;DHT22;38518;53.164;5.430;2023-05-24T14:31:31;24.30;1.00
51619;DHT22;38518;53.164;5.430;2023-05-24T14:33:58;24.10;1.00
51619;DHT22;38518;53.164;5.430;2023-05-24T14:36:24;23.80;1.00
51619;DHT22;38518;53.164;5.430;2023-05-24T14:38:50;23.80;1.00
51619;DHT22;38518;53.164;5.430;2023-05-24T14:41:16;23.70;1.00
51619;DHT22;38518;53.164;5.430;2023-05-24T14:43:42;23.20;1.00
51619;DHT22;38518;53.164;5.430;2023-05-24T14:46:08;22.80;1.00
51619;DHT22;38518;53.164;5.430;2023-05-24T14:48:33;22.40;1.00
51619;DHT22;38518;53.164;5.430;2023-05-24T14:51:01;22.40;1.00
51619;DHT22;38518;53.164;5.430;2023-05-24T14:53:27;21.90;1.00
51619;DHT22;38518;53.164;5.430;2023-05-24T14:55:53;21.70;1.00
51619;DHT22;38518;53.164;5.430;2023-05-24T14:58:19;22.10;1.00
51619;DHT22;38518;53.164;5.430;2023-05-24T15:00:45;21.80;1.00
51619;DHT22;38518;53.164;5.430;2023-05-24T15:03:11;21.20;1.00
51619;DHT22;38518;53.164;5.430;2023-05-24T15:05:38;20.80;1.00
51619;DHT22;38518;53.164;5.430;2023-05-24T15:08:05;20.50;1.00
51619;DHT22;38518;53.164;5.430;2023-05-24T15:10:32;20.80;1.00
51619;DHT22;38518;53.164;5.430;2023-05-24T15:12:58;21.50;1.00
51619;DHT22;38518;53.164;5.430;2023-05-24T15:15:25;21.90;1.00
51619;DHT22;38518;53.164;5.430;2023-05-24T15:17:51;21.90;1.00
51619;DHT22;38518;53.164;5.430;2023-05-24T15:20:17;22.30;1.00
51619;DHT22;38518;53.164;5.430;2023-05-24T15:22:43;22.20;1.00
51619;DHT22;38518;53.164;5.430;2023-05-24T15:25:09;22.00;1.00
51619;DHT22;38518;53.164;5.430;2023-05-24T15:27:35;21.20;1.00
51619;DHT22;38518;53.164;5.430;2023-05-24T15:30:01;20.90;1.00
51619;DHT22;38518;53.164;5.430;2023-05-24T15:32:27;20.70;1.00
51619;DHT22;38518;53.164;5.430;2023-05-24T15:34:53;20.30;1.00
51619;DHT22;38518;53.164;5.430;2023-05-24T15:37:20;19.90;1.00
51619;DHT22;38518;53.164;5.430;2023-05-24T15:39:47;19.60;1.00
51619;DHT22;38518;53.164;5.430;2023-05-24T15:42:13;19.30;1.00
51619;DHT22;38518;53.164;5.430;2023-05-24T15:44:40;19.30;1.00
51619;DHT22;38518;53.164;5.430;2023-05-24T15:47:06;19.20;1.00
51619;DHT22;38518;53.164;5.430;2023-05-24T15:49:31;19.20;1.00
51619;DHT22;38518;53.164;5.430;2023-05-24T15:51:57;19.10;1.00
51619;DHT22;38518;53.164;5.430;2023-05-24T15:54:23;19.10;1.00
51619;DHT22;38518;53.164;5.430;2023-05-24T15:56:49;19.00;1.00
51619;DHT22;38518;53.164;5.430;2023-05-24T15:59:15;19.10;1.00
51619;DHT22;38518;53.164;5.430;2023-05-24T16:01:40;19.20;1.00
51619;DHT22;38518;53.164;5.430;2023-05-24T16:04:07;19.40;1.00
51619;DHT22;38518;53.164;5.430;2023-05-24T16:06:32;19.30;1.00
51619;DHT22;38518;53.164;5.430;2023-05-24T16:08:58;19.10;1.00
51619;DHT22;38518;53.164;5.430;2023-05-24T16:11:24;18.90;1.00
51619;DHT22;38518;53.164;5.430;2023-05-24T16:13:50;18.60;1.00